createdAt,value
2019-02-23T00:00:15.198Z,103803.56
2019-02-23T00:00:50.297Z,103803.56
2019-02-23T00:01:21.628Z,103799.87
2019-02-23T00:01:53.075Z,103802.65
2019-02-23T00:02:24.368Z,103799.72
2019-02-23T00:02:55.703Z,103796.42
2019-02-23T00:03:27.034Z,103794.38
2019-02-23T00:03:58.353Z,103799.36
2019-02-23T00:04:30.656Z,103797.38
2019-02-23T00:05:01.918Z,103799.23
2019-02-23T00:05:33.417Z,103795.19
2019-02-23T00:06:04.703Z,103797.80
2019-02-23T00:06:35.972Z,103795.77
2019-02-23T00:07:07.282Z,103796.69
2019-02-23T00:07:38.615Z,103801.11
2019-02-23T00:08:10.045Z,103795.41
2019-02-23T00:08:41.352Z,103798.91
2019-02-23T00:09:12.755Z,103801.32
2019-02-23T00:09:44.297Z,103802.97
2019-02-23T00:10:17.680Z,103802.26
2019-02-23T00:10:49.199Z,103796.03
2019-02-23T00:11:24.309Z,103802.83
2019-02-23T00:11:55.723Z,103805.05
2019-02-23T00:12:27.115Z,103804.49
2019-02-23T00:12:58.523Z,103804.33
2019-02-23T00:13:29.956Z,103802.89
2019-02-23T00:14:01.409Z,103803.05
2019-02-23T00:14:33.990Z,103801.97
2019-02-23T00:15:05.993Z,103802.53
2019-02-23T00:15:37.355Z,103800.52
2019-02-23T00:16:08.940Z,103796.09
2019-02-23T00:16:40.374Z,103797.58
2019-02-23T00:17:11.816Z,103799.59
2019-02-23T00:17:43.634Z,103801.24
2019-02-23T00:18:15.212Z,103791.14
2019-02-23T00:18:46.812Z,103790.22
2019-02-23T00:19:24.911Z,103783.98
2019-02-23T00:19:51.749Z,103789.86
2019-02-23T00:20:23.163Z,103783.42
2019-02-23T00:20:54.735Z,103787.48
2019-02-23T00:21:26.168Z,103788.94
2019-02-23T00:21:57.639Z,103788.21
2019-02-23T00:22:29.061Z,103786.75
2019-02-23T00:23:00.531Z,103786.03
2019-02-23T00:23:31.820Z,103788.97
2019-02-23T00:24:03.429Z,103790.25
2019-02-23T00:24:34.891Z,103784.38
2019-02-23T00:25:06.598Z,103787.51
2019-02-23T00:25:37.993Z,103779.22
2019-02-23T00:26:09.628Z,103778.29
2019-02-23T00:26:40.892Z,103776.27
2019-02-23T00:27:12.320Z,103770.39
2019-02-23T00:27:43.839Z,103762.30
2019-02-23T00:28:15.439Z,103760.26
2019-02-23T00:28:46.956Z,103771.48
2019-02-23T00:29:18.598Z,103760.45
2019-02-23T00:29:50.064Z,103762.47
2019-02-23T00:30:21.399Z,103767.83
2019-02-23T00:30:52.828Z,103760.45
2019-02-23T00:31:24.347Z,103767.62
2019-02-23T00:31:55.669Z,103771.13
2019-02-23T00:32:27.144Z,103769.48
2019-02-23T00:32:58.577Z,103773.70
2019-02-23T00:33:30.005Z,103774.27
2019-02-23T00:34:01.503Z,103771.69
2019-02-23T00:34:32.909Z,103776.07
2019-02-23T00:35:04.423Z,103782.55
2019-02-23T00:35:35.872Z,103778.13
2019-02-23T00:36:07.377Z,103775.71
2019-02-23T00:36:39.081Z,103772.77
2019-02-23T00:37:10.537Z,103775.72
2019-02-23T00:37:42.162Z,103774.63
2019-02-23T00:38:13.845Z,103768.19
2019-02-23T00:38:45.343Z,103773.88
2019-02-23T00:39:16.681Z,103778.10
2019-02-23T00:39:48.139Z,103781.60
2019-02-23T00:40:19.498Z,103779.95
2019-02-23T00:40:50.941Z,103780.32
2019-02-23T00:41:22.285Z,103774.41
2019-02-23T00:41:53.661Z,103777.35
2019-02-23T00:42:25.022Z,103773.69
2019-02-23T00:42:56.371Z,103775.53
2019-02-23T00:43:27.701Z,103779.20
2019-02-23T00:43:59.022Z,103773.13
2019-02-23T00:44:30.419Z,103772.76
2019-02-23T00:45:01.854Z,103771.66
2019-02-23T00:45:34.326Z,103765.03
2019-02-23T00:46:05.703Z,103765.95
2019-02-23T00:46:37.132Z,103768.53
2019-02-23T00:47:08.678Z,103765.39
2019-02-23T00:47:40.298Z,103767.45
2019-02-23T00:48:11.700Z,103763.94
2019-02-23T00:48:43.022Z,103757.30
2019-02-23T00:49:14.567Z,103757.86
2019-02-23T00:49:46.036Z,103754.92
2019-02-23T00:50:17.625Z,103755.85
2019-02-23T00:50:49.096Z,103753.84
2019-02-23T00:51:20.698Z,103748.84
2019-02-23T00:51:52.103Z,103752.55
2019-02-23T00:52:23.532Z,103755.31
2019-02-23T00:52:55.028Z,103753.27
2019-02-23T00:53:26.544Z,103750.69
2019-02-23T00:53:58.009Z,103749.05
2019-02-23T00:54:29.495Z,103753.47
2019-02-23T00:55:00.851Z,103755.11
2019-02-23T00:55:32.433Z,103755.48
2019-02-23T00:56:03.870Z,103763.56
2019-02-23T00:56:35.200Z,103763.20
2019-02-23T00:57:07.694Z,103771.50
2019-02-23T00:57:39.097Z,103771.47
2019-02-23T00:58:10.582Z,103773.48
2019-02-23T00:58:42.052Z,103773.32
2019-02-23T00:59:13.566Z,103771.47
2019-02-23T00:59:45.109Z,103778.47
2019-02-23T01:00:17.013Z,103779.56
2019-02-23T01:00:48.636Z,103779.56
2019-02-23T01:01:20.205Z,103777.88
2019-02-23T01:01:51.566Z,103783.22
2019-02-23T01:02:24.100Z,103775.09
2019-02-23T01:02:55.653Z,103776.95
2019-02-23T01:03:27.167Z,103771.44
2019-02-23T01:03:58.743Z,103771.80
2019-02-23T01:04:30.170Z,103768.09
2019-02-23T01:05:01.471Z,103775.09
2019-02-23T01:05:32.981Z,103768.30
2019-02-23T01:06:04.413Z,103772.56
2019-02-23T01:06:35.883Z,103773.84
2019-02-23T01:07:07.418Z,103776.42
2019-02-23T01:07:38.897Z,103779.36
2019-02-23T01:08:10.308Z,103775.66
2019-02-23T01:08:42.732Z,103784.87
2019-02-23T01:09:14.172Z,103783.74
2019-02-23T01:09:45.554Z,103783.22
2019-02-23T01:10:19.365Z,103790.55
2019-02-23T01:10:57.834Z,103791.47
2019-02-23T01:11:23.242Z,103793.88
2019-02-23T01:11:54.587Z,103794.80
2019-02-23T01:12:25.894Z,103788.53
2019-02-23T01:12:57.218Z,103803.25
2019-02-23T01:13:28.749Z,103796.61
2019-02-23T01:14:00.028Z,103798.98
2019-02-23T01:14:31.356Z,103797.13
2019-02-23T01:15:06.118Z,103808.18
2019-02-23T01:15:37.413Z,103805.61
2019-02-23T01:16:08.757Z,103807.06
2019-02-23T01:16:40.164Z,103809.28
2019-02-23T01:17:11.394Z,103812.98
2019-02-23T01:17:42.771Z,103820.30
2019-02-23T01:18:14.440Z,103818.84
2019-02-23T01:18:46.757Z,103823.27
2019-02-23T01:19:18.058Z,103820.34
2019-02-23T01:19:49.458Z,103821.80
2019-02-23T01:20:20.741Z,103822.19
2019-02-23T01:20:52.153Z,103823.28
2019-02-23T01:21:23.536Z,103819.22
2019-02-23T01:21:54.815Z,103817.20
2019-02-23T01:22:26.286Z,103825.49
2019-02-23T01:22:57.677Z,103819.98
2019-02-23T01:23:29.072Z,103823.08
2019-02-23T01:24:00.468Z,103820.13
2019-02-23T01:24:31.853Z,103825.64
2019-02-23T01:25:04.364Z,103832.28
2019-02-23T01:25:35.798Z,103831.71
2019-02-23T01:26:07.120Z,103827.86
2019-02-23T01:26:38.732Z,103834.09
2019-02-23T01:27:10.150Z,103828.77
2019-02-23T01:27:41.506Z,103829.13
2019-02-23T01:28:12.895Z,103826.20
2019-02-23T01:28:47.095Z,103823.43
2019-02-23T01:29:18.580Z,103823.99
2019-02-23T01:29:50.035Z,103824.92
2019-02-23T01:30:21.424Z,103824.20
2019-02-23T01:30:52.670Z,103822.14
2019-02-23T01:31:24.235Z,103829.14
2019-02-23T01:31:55.706Z,103822.55
2019-02-23T01:32:28.078Z,103825.12
2019-02-23T01:32:59.375Z,103828.80
2019-02-23T01:33:30.685Z,103832.66
2019-02-23T01:34:02.123Z,103830.28
2019-02-23T01:34:33.521Z,103832.28
2019-02-23T01:35:04.879Z,103835.78
2019-02-23T01:35:36.379Z,103831.00
2019-02-23T01:36:07.701Z,103835.94
2019-02-23T01:36:39.181Z,103834.09
2019-02-23T01:37:10.575Z,103833.00
2019-02-23T01:37:41.979Z,103826.92
2019-02-23T01:38:13.345Z,103826.16
2019-02-23T01:38:44.812Z,103826.55
2019-02-23T01:39:16.154Z,103823.78
2019-02-23T01:39:47.671Z,103822.48
2019-02-23T01:40:18.984Z,103822.85
2019-02-23T01:40:50.329Z,103821.56
2019-02-23T01:41:21.972Z,103823.41
2019-02-23T01:41:53.384Z,103828.56
2019-02-23T01:42:24.647Z,103832.42
2019-02-23T01:42:56.019Z,103828.20
2019-02-23T01:43:27.290Z,103837.00
2019-02-23T01:44:00.533Z,103835.52
2019-02-23T01:44:31.831Z,103837.36
2019-02-23T01:45:05.467Z,103834.78
2019-02-23T01:45:42.263Z,103831.65
2019-02-23T01:46:10.059Z,103833.86
2019-02-23T01:46:42.441Z,103832.21
2019-02-23T01:47:13.841Z,103830.56
2019-02-23T01:47:45.311Z,103828.72
2019-02-23T01:48:16.763Z,103823.78
2019-02-23T01:48:48.168Z,103823.98
2019-02-23T01:49:19.529Z,103822.50
2019-02-23T01:49:58.491Z,103819.56
2019-02-23T01:50:24.386Z,103820.48
2019-02-23T01:50:55.754Z,103812.20
2019-02-23T01:51:27.088Z,103816.98
2019-02-23T01:51:58.604Z,103809.42
2019-02-23T01:52:30.016Z,103814.05
2019-02-23T01:53:01.301Z,103808.34
2019-02-23T01:53:32.728Z,103804.12
2019-02-23T01:54:04.032Z,103813.70
2019-02-23T01:54:35.304Z,103816.48
2019-02-23T01:55:06.903Z,103808.96
2019-02-23T01:55:38.199Z,103819.06
2019-02-23T01:56:09.709Z,103809.89
2019-02-23T01:56:41.111Z,103808.61
2019-02-23T01:57:12.428Z,103807.32
2019-02-23T01:57:43.955Z,103808.61
2019-02-23T01:58:15.425Z,103806.59
2019-02-23T01:58:46.775Z,103801.61
2019-02-23T01:59:18.166Z,103804.19
2019-02-23T01:59:49.507Z,103801.97
2019-02-23T02:00:21.633Z,103800.88
2019-02-23T02:00:52.981Z,103803.98
2019-02-23T02:01:24.389Z,103808.56
2019-02-23T02:01:57.343Z,103806.91
2019-02-23T02:02:28.981Z,103807.11
2019-02-23T02:03:00.379Z,103804.69
2019-02-23T02:03:31.708Z,103798.61
2019-02-23T02:04:03.082Z,103805.05
2019-02-23T02:04:35.544Z,103801.34
2019-02-23T02:05:07.384Z,103802.98
2019-02-23T02:05:38.761Z,103801.70
2019-02-23T02:06:10.243Z,103803.17
2019-02-23T02:06:41.609Z,103796.38
2019-02-23T02:07:13.040Z,103797.67
2019-02-23T02:07:44.352Z,103800.97
2019-02-23T02:08:15.715Z,103789.39
2019-02-23T02:08:47.110Z,103793.82
2019-02-23T02:09:18.416Z,103793.09
2019-02-23T02:09:49.694Z,103790.52
2019-02-23T02:10:21.048Z,103789.23
2019-02-23T02:10:52.364Z,103789.23
2019-02-23T02:11:23.757Z,103786.66
2019-02-23T02:11:54.960Z,103784.98
2019-02-23T02:12:26.352Z,103787.39
2019-02-23T02:12:57.670Z,103780.39
2019-02-23T02:13:28.970Z,103778.38
2019-02-23T02:14:00.357Z,103776.53
2019-02-23T02:14:31.598Z,103778.02
2019-02-23T02:15:07.019Z,103772.67
2019-02-23T02:15:38.687Z,103775.81
2019-02-23T02:16:09.889Z,103770.30
2019-02-23T02:16:41.109Z,103769.02
2019-02-23T02:17:12.651Z,103766.08
2019-02-23T02:17:43.901Z,103765.72
2019-02-23T02:18:15.165Z,103763.88
2019-02-23T02:18:46.683Z,103759.13
2019-02-23T02:19:18.880Z,103754.91
2019-02-23T02:19:50.093Z,103759.66
2019-02-23T02:20:21.400Z,103756.36
2019-02-23T02:20:52.718Z,103751.57
2019-02-23T02:21:23.962Z,103748.99
2019-02-23T02:21:55.210Z,103750.12
2019-02-23T02:22:26.468Z,103751.20
2019-02-23T02:22:57.687Z,103747.38
2019-02-23T02:23:28.945Z,103750.31
2019-02-23T02:24:00.360Z,103749.22
2019-02-23T02:24:31.887Z,103742.42
2019-02-23T02:25:05.093Z,103751.63
2019-02-23T02:25:36.375Z,103746.83
2019-02-23T02:26:07.693Z,103741.48
2019-02-23T02:26:38.901Z,103748.12
2019-02-23T02:27:10.195Z,103744.62
2019-02-23T02:27:41.415Z,103746.11
2019-02-23T02:28:12.658Z,103742.77
2019-02-23T02:28:44.105Z,103748.68
2019-02-23T02:29:15.419Z,103746.45
2019-02-23T02:29:46.653Z,103745.36
2019-02-23T02:30:17.939Z,103741.70
2019-02-23T02:30:49.135Z,103737.63
2019-02-23T02:31:20.436Z,103736.55
2019-02-23T02:31:51.626Z,103739.84
2019-02-23T02:32:22.897Z,103734.34
2019-02-23T02:32:54.091Z,103743.88
2019-02-23T02:33:25.502Z,103742.98
2019-02-23T02:34:04.565Z,103737.07
2019-02-23T02:34:35.892Z,103739.28
2019-02-23T02:35:09.069Z,103744.06
2019-02-23T02:35:40.542Z,103748.30
2019-02-23T02:36:12.064Z,103747.95
2019-02-23T02:36:43.780Z,103745.55
2019-02-23T02:37:15.022Z,103747.39
2019-02-23T02:37:46.280Z,103743.52
2019-02-23T02:38:17.601Z,103748.31
2019-02-23T02:38:48.849Z,103749.60
2019-02-23T02:39:20.157Z,103758.98
2019-02-23T02:39:51.490Z,103751.98
2019-02-23T02:40:22.859Z,103754.55
2019-02-23T02:40:54.216Z,103760.83
2019-02-23T02:41:25.482Z,103762.83
2019-02-23T02:41:56.762Z,103746.46
2019-02-23T02:42:28.028Z,103754.02
2019-02-23T02:42:59.403Z,103749.41
2019-02-23T02:43:30.699Z,103752.91
2019-02-23T02:44:02.098Z,103751.79
2019-02-23T02:44:33.397Z,103759.35
2019-02-23T02:45:08.448Z,103750.70
2019-02-23T02:45:40.001Z,103757.30
2019-02-23T02:46:11.266Z,103758.43
2019-02-23T02:46:42.581Z,103755.83
2019-02-23T02:47:14.113Z,103758.23
2019-02-23T02:47:45.438Z,103760.45
2019-02-23T02:48:16.801Z,103764.67
2019-02-23T02:48:48.126Z,103762.09
2019-02-23T02:49:19.530Z,103764.31
2019-02-23T02:49:50.994Z,103770.35
2019-02-23T02:50:24.468Z,103770.55
2019-02-23T02:50:55.418Z,103767.41
2019-02-23T02:51:26.784Z,103768.91
2019-02-23T02:51:58.132Z,103765.04
2019-02-23T02:52:29.493Z,103765.20
2019-02-23T02:53:00.863Z,103767.78
2019-02-23T02:53:32.282Z,103764.47
2019-02-23T02:54:03.565Z,103766.13
2019-02-23T02:54:34.846Z,103762.06
2019-02-23T02:55:07.661Z,103757.28
2019-02-23T02:55:38.959Z,103762.06
2019-02-23T02:56:10.214Z,103751.60
2019-02-23T02:56:41.571Z,103747.91
2019-02-23T02:57:12.958Z,103744.04
2019-02-23T02:57:44.404Z,103747.94
2019-02-23T02:58:15.734Z,103748.66
2019-02-23T02:58:47.075Z,103741.86
2019-02-23T02:59:18.298Z,103740.94
2019-02-23T02:59:49.574Z,103731.92
2019-02-23T03:00:20.887Z,103735.59
2019-02-23T03:00:52.069Z,103734.70
2019-02-23T03:01:23.353Z,103736.91
2019-02-23T03:01:54.570Z,103736.17
2019-02-23T03:02:26.050Z,103741.13
2019-02-23T03:02:57.349Z,103730.27
2019-02-23T03:03:28.890Z,103736.34
2019-02-23T03:04:00.196Z,103731.18
2019-02-23T03:04:31.640Z,103732.47
2019-02-23T03:05:04.179Z,103738.54
2019-02-23T03:05:36.527Z,103732.10
2019-02-23T03:06:07.747Z,103732.30
2019-02-23T03:06:39.157Z,103737.25
2019-02-23T03:07:11.441Z,103727.15
2019-02-23T03:07:42.822Z,103735.59
2019-02-23T03:08:14.146Z,103733.22
2019-02-23T03:08:45.457Z,103733.95
2019-02-23T03:09:17.153Z,103735.05
2019-02-23T03:09:48.439Z,103728.08
2019-02-23T03:10:19.781Z,103722.37
2019-02-23T03:10:51.143Z,103719.23
2019-02-23T03:11:22.408Z,103709.86
2019-02-23T03:11:53.825Z,103710.20
2019-02-23T03:12:25.075Z,103707.83
2019-02-23T03:12:56.422Z,103710.77
2019-02-23T03:13:27.726Z,103704.16
2019-02-23T03:13:59.108Z,103703.23
2019-02-23T03:14:30.482Z,103708.38
2019-02-23T03:15:01.815Z,103714.45
2019-02-23T03:15:34.171Z,103717.22
2019-02-23T03:16:05.520Z,103721.61
2019-02-23T03:16:36.951Z,103723.83
2019-02-23T03:17:08.336Z,103721.61
2019-02-23T03:17:39.628Z,103728.05
2019-02-23T03:18:10.983Z,103723.46
2019-02-23T03:18:42.242Z,103719.80
2019-02-23T03:19:13.780Z,103721.46
2019-02-23T03:19:45.119Z,103721.83
2019-02-23T03:20:16.700Z,103716.11
2019-02-23T03:20:47.948Z,103712.97
2019-02-23T03:21:19.237Z,103716.10
2019-02-23T03:21:50.495Z,103715.53
2019-02-23T03:22:21.813Z,103717.02
2019-02-23T03:22:53.187Z,103719.06
2019-02-23T03:23:24.461Z,103722.53
2019-02-23T03:23:55.657Z,103726.22
2019-02-23T03:24:26.999Z,103729.89
2019-02-23T03:24:58.222Z,103731.91
2019-02-23T03:25:29.605Z,103728.41
2019-02-23T03:26:00.865Z,103733.05
2019-02-23T03:26:32.090Z,103734.50
2019-02-23T03:27:03.334Z,103735.98
2019-02-23T03:27:34.623Z,103731.55
2019-02-23T03:28:05.896Z,103725.48
2019-02-23T03:28:37.212Z,103731.19
2019-02-23T03:29:08.418Z,103727.88
2019-02-23T03:29:39.684Z,103725.30
2019-02-23T03:30:10.957Z,103715.56
2019-02-23T03:30:42.437Z,103724.38
2019-02-23T03:31:13.705Z,103722.53
2019-02-23T03:31:45.065Z,103714.09
2019-02-23T03:32:16.348Z,103712.07
2019-02-23T03:32:47.696Z,103704.33
2019-02-23T03:33:19.006Z,103698.44
2019-02-23T03:33:50.409Z,103698.06
2019-02-23T03:34:21.720Z,103691.42
2019-02-23T03:34:53.015Z,103693.28
2019-02-23T03:35:24.231Z,103690.14
2019-02-23T03:35:55.559Z,103694.73
2019-02-23T03:36:26.965Z,103687.20
2019-02-23T03:36:58.390Z,103690.34
2019-02-23T03:37:29.665Z,103684.26
2019-02-23T03:38:01.041Z,103681.48
2019-02-23T03:38:32.351Z,103679.45
2019-02-23T03:39:04.109Z,103684.25
2019-02-23T03:39:36.896Z,103679.45
2019-02-23T03:40:08.376Z,103673.20
2019-02-23T03:40:39.676Z,103670.61
2019-02-23T03:41:11.012Z,103672.09
2019-02-23T03:41:42.432Z,103670.95
2019-02-23T03:42:14.115Z,103675.38
2019-02-23T03:42:45.481Z,103665.80
2019-02-23T03:43:16.801Z,103670.42
2019-02-23T03:43:48.148Z,103674.46
2019-02-23T03:44:19.384Z,103670.02
2019-02-23T03:44:50.688Z,103671.14
2019-02-23T03:45:21.926Z,103672.78
2019-02-23T03:45:53.274Z,103675.14
2019-02-23T03:46:24.523Z,103675.70
2019-02-23T03:46:55.905Z,103671.47
2019-02-23T03:47:27.105Z,103676.81
2019-02-23T03:47:58.435Z,103667.80
2019-02-23T03:48:29.695Z,103665.22
2019-02-23T03:49:01.059Z,103663.93
2019-02-23T03:49:32.350Z,103665.22
2019-02-23T03:50:05.838Z,103658.77
2019-02-23T03:50:48.470Z,103665.00
2019-02-23T03:51:10.371Z,103665.00
2019-02-23T03:51:41.598Z,103664.08
2019-02-23T03:52:12.889Z,103659.84
2019-02-23T03:52:44.317Z,103662.26
2019-02-23T03:53:15.674Z,103669.63
2019-02-23T03:53:47.103Z,103660.20
2019-02-23T03:54:18.455Z,103667.20
2019-02-23T03:54:49.764Z,103672.20
2019-02-23T03:55:21.142Z,103667.56
2019-02-23T03:55:52.518Z,103673.09
2019-02-23T03:56:23.833Z,103669.63
2019-02-23T03:56:55.059Z,103678.07
2019-02-23T03:57:26.408Z,103681.75
2019-02-23T03:57:57.821Z,103686.91
2019-02-23T03:58:29.212Z,103687.67
2019-02-23T03:59:00.551Z,103692.42
2019-02-23T03:59:31.820Z,103686.53
2019-02-23T04:00:06.225Z,103690.97
2019-02-23T04:00:37.730Z,103691.30
2019-02-23T04:01:09.085Z,103685.41
2019-02-23T04:01:40.405Z,103690.75
2019-02-23T04:02:11.833Z,103685.59
2019-02-23T04:02:44.413Z,103682.09
2019-02-23T04:03:15.822Z,103691.67
2019-02-23T04:03:47.360Z,103692.04
2019-02-23T04:04:19.745Z,103695.17
2019-02-23T04:04:51.086Z,103698.84
2019-02-23T04:05:22.325Z,103694.78
2019-02-23T04:05:53.694Z,103699.94
2019-02-23T04:06:25.127Z,103701.23
2019-02-23T04:06:56.650Z,103701.95
2019-02-23T04:07:27.871Z,103699.76
2019-02-23T04:07:59.159Z,103693.89
2019-02-23T04:08:30.552Z,103694.80
2019-02-23T04:09:02.875Z,103692.42
2019-02-23T04:09:36.213Z,103696.47
2019-02-23T04:10:07.507Z,103686.36
2019-02-23T04:10:38.970Z,103689.12
2019-02-23T04:11:10.348Z,103692.42
2019-02-23T04:11:41.732Z,103695.95
2019-02-23T04:12:13.203Z,103696.16
2019-02-23T04:12:44.651Z,103699.11
2019-02-23T04:13:16.035Z,103696.91
2019-02-23T04:13:47.265Z,103695.22
2019-02-23T04:14:18.587Z,103694.14
2019-02-23T04:14:49.920Z,103691.74
2019-02-23T04:15:21.177Z,103695.45
2019-02-23T04:15:52.462Z,103694.72
2019-02-23T04:16:23.792Z,103697.65
2019-02-23T04:16:55.159Z,103693.57
2019-02-23T04:17:26.557Z,103700.40
2019-02-23T04:17:57.919Z,103700.02
2019-02-23T04:18:29.195Z,103694.66
2019-02-23T04:19:00.545Z,103688.94
2019-02-23T04:19:32.002Z,103690.61
2019-02-23T04:20:06.004Z,103689.90
2019-02-23T04:20:37.365Z,103686.20
2019-02-23T04:21:08.819Z,103685.69
2019-02-23T04:21:40.052Z,103680.14
2019-02-23T04:22:11.424Z,103679.05
2019-02-23T04:22:42.719Z,103682.55
2019-02-23T04:23:14.201Z,103677.76
2019-02-23T04:23:46.721Z,103673.70
2019-02-23T04:24:18.189Z,103672.25
2019-02-23T04:24:49.620Z,103672.25
2019-02-23T04:25:20.970Z,103671.52
2019-02-23T04:25:52.396Z,103670.04
2019-02-23T04:26:23.838Z,103671.52
2019-02-23T04:26:55.099Z,103672.41
2019-02-23T04:27:26.373Z,103670.97
2019-02-23T04:27:57.830Z,103673.33
2019-02-23T04:28:29.159Z,103671.88
2019-02-23T04:29:00.460Z,103678.09
2019-02-23T04:29:31.781Z,103679.02
2019-02-23T04:30:05.307Z,103681.78
2019-02-23T04:30:36.729Z,103681.78
2019-02-23T04:31:08.069Z,103681.95
2019-02-23T04:31:39.381Z,103680.30
2019-02-23T04:32:10.609Z,103684.55
2019-02-23T04:32:42.056Z,103683.42
2019-02-23T04:33:13.631Z,103682.70
2019-02-23T04:33:45.054Z,103686.94
2019-02-23T04:34:16.490Z,103685.08
2019-02-23T04:34:47.887Z,103685.63
2019-02-23T04:35:19.243Z,103683.42
2019-02-23T04:35:50.598Z,103688.77
2019-02-23T04:36:21.952Z,103682.66
2019-02-23T04:36:53.332Z,103678.80
2019-02-23T04:37:24.600Z,103683.40
2019-02-23T04:37:56.069Z,103679.90
2019-02-23T04:38:27.478Z,103682.84
2019-02-23T04:38:58.806Z,103682.27
2019-02-23T04:39:30.100Z,103679.33
2019-02-23T04:40:01.426Z,103681.73
2019-02-23T04:40:33.783Z,103682.44
2019-02-23T04:41:05.085Z,103676.74
2019-02-23T04:41:36.429Z,103687.58
2019-02-23T04:42:07.737Z,103691.45
2019-02-23T04:42:39.119Z,103682.98
2019-02-23T04:43:10.491Z,103683.32
2019-02-23T04:43:43.992Z,103684.78
2019-02-23T04:44:14.840Z,103686.63
2019-02-23T04:44:46.160Z,103691.05
2019-02-23T04:45:17.649Z,103684.05
2019-02-23T04:45:48.949Z,103688.28
2019-02-23T04:46:20.402Z,103687.36
2019-02-23T04:46:51.785Z,103693.05
2019-02-23T04:47:23.121Z,103697.29
2019-02-23T04:47:54.497Z,103701.00
2019-02-23T04:48:26.021Z,103699.16
2019-02-23T04:48:57.344Z,103700.08
2019-02-23T04:49:28.645Z,103701.55
2019-02-23T04:49:59.918Z,103702.84
2019-02-23T04:50:31.461Z,103699.70
2019-02-23T04:51:13.793Z,103700.08
2019-02-23T04:51:36.995Z,103700.23
2019-02-23T04:52:08.342Z,103703.59
2019-02-23T04:52:39.955Z,103705.80
2019-02-23T04:53:11.240Z,103709.48
2019-02-23T04:53:42.666Z,103709.28
2019-02-23T04:54:14.228Z,103707.27
2019-02-23T04:54:45.527Z,103707.63
2019-02-23T04:55:17.127Z,103711.30
2019-02-23T04:55:48.472Z,103717.39
2019-02-23T04:56:19.739Z,103722.56
2019-02-23T04:56:51.139Z,103727.94
2019-02-23T04:57:22.429Z,103727.94
2019-02-23T04:57:53.783Z,103725.36
2019-02-23T04:58:25.193Z,103725.52
2019-02-23T04:58:56.523Z,103722.41
2019-02-23T04:59:27.805Z,103723.30
2019-02-23T04:59:59.175Z,103719.83
2019-02-23T05:00:30.551Z,103721.13
2019-02-23T05:01:01.824Z,103734.00
2019-02-23T05:01:33.263Z,103723.91
2019-02-23T05:02:04.611Z,103727.02
2019-02-23T05:02:35.933Z,103724.84
2019-02-23T05:03:07.384Z,103720.20
2019-02-23T05:03:38.931Z,103724.61
2019-02-23T05:04:10.315Z,103717.41
2019-02-23T05:04:41.635Z,103713.54
2019-02-23T05:05:13.012Z,103717.97
2019-02-23T05:05:44.412Z,103715.95
2019-02-23T05:06:15.816Z,103717.58
2019-02-23T05:06:47.201Z,103717.22
2019-02-23T05:07:18.478Z,103714.83
2019-02-23T05:07:49.736Z,103709.27
2019-02-23T05:08:21.008Z,103715.34
2019-02-23T05:08:52.352Z,103709.27
2019-02-23T05:09:23.656Z,103704.85
2019-02-23T05:09:54.964Z,103706.70
2019-02-23T05:10:26.386Z,103704.12
2019-02-23T05:10:57.727Z,103709.80
2019-02-23T05:11:29.186Z,103708.89
2019-02-23T05:12:00.513Z,103709.97
2019-02-23T05:12:31.850Z,103711.26
2019-02-23T05:13:03.225Z,103709.23
2019-02-23T05:13:34.641Z,103714.19
2019-02-23T05:14:05.941Z,103708.14
2019-02-23T05:14:37.260Z,103712.18
2019-02-23T05:15:09.269Z,103708.88
2019-02-23T05:15:40.583Z,103703.71
2019-02-23T05:16:11.852Z,103704.63
2019-02-23T05:16:43.569Z,103710.31
2019-02-23T05:17:14.875Z,103704.77
2019-02-23T05:17:46.536Z,103705.14
2019-02-23T05:18:17.831Z,103706.59
2019-02-23T05:18:49.189Z,103709.36
2019-02-23T05:19:20.501Z,103712.67
2019-02-23T05:19:51.947Z,103710.67
2019-02-23T05:20:23.278Z,103712.15
2019-02-23T05:20:54.702Z,103710.67
2019-02-23T05:21:27.011Z,103707.16
2019-02-23T05:21:58.576Z,103711.03
2019-02-23T05:22:29.834Z,103712.14
2019-02-23T05:23:01.231Z,103717.14
2019-02-23T05:23:32.582Z,103715.11
2019-02-23T05:24:03.978Z,103717.32
2019-02-23T05:24:35.241Z,103715.66
2019-02-23T05:25:06.601Z,103709.58
2019-02-23T05:25:37.889Z,103712.16
2019-02-23T05:26:09.384Z,103715.47
2019-02-23T05:26:40.725Z,103712.89
2019-02-23T05:27:12.112Z,103715.47
2019-02-23T05:27:43.350Z,103719.90
2019-02-23T05:28:14.740Z,103720.84
2019-02-23T05:28:46.157Z,103724.00
2019-02-23T05:29:17.502Z,103727.13
2019-02-23T05:29:48.768Z,103727.52
2019-02-23T05:30:20.019Z,103728.09
2019-02-23T05:30:51.405Z,103728.63
2019-02-23T05:31:22.723Z,103733.62
2019-02-23T05:31:54.027Z,103739.14
2019-02-23T05:32:25.325Z,103736.36
2019-02-23T05:32:56.719Z,103738.37
2019-02-23T05:33:28.107Z,103744.99
2019-02-23T05:33:59.552Z,103740.22
2019-02-23T05:34:30.867Z,103742.64
2019-02-23T05:35:02.416Z,103742.09
2019-02-23T05:35:33.848Z,103742.81
2019-02-23T05:36:05.129Z,103738.23
2019-02-23T05:36:36.436Z,103736.59
2019-02-23T05:37:08.887Z,103737.70
2019-02-23T05:37:40.227Z,103736.58
2019-02-23T05:38:11.572Z,103740.47
2019-02-23T05:38:42.826Z,103740.86
2019-02-23T05:39:14.275Z,103743.99
2019-02-23T05:39:45.636Z,103746.58
2019-02-23T05:40:17.245Z,103747.16
2019-02-23T05:40:48.646Z,103749.38
2019-02-23T05:41:19.969Z,103745.13
2019-02-23T05:41:51.368Z,103743.29
2019-02-23T05:42:22.749Z,103746.81
2019-02-23T05:43:00.970Z,103747.19
2019-02-23T05:43:27.271Z,103745.70
2019-02-23T05:43:58.550Z,103751.78
2019-02-23T05:44:29.885Z,103747.55
2019-02-23T05:45:01.222Z,103748.27
2019-02-23T05:45:33.530Z,103750.48
2019-02-23T05:46:04.921Z,103749.75
2019-02-23T05:46:36.164Z,103748.66
2019-02-23T05:47:07.510Z,103745.14
2019-02-23T05:47:38.829Z,103745.33
2019-02-23T05:48:10.229Z,103745.89
2019-02-23T05:48:41.420Z,103746.41
2019-02-23T05:49:12.682Z,103744.23
2019-02-23T05:49:44.174Z,103744.21
2019-02-23T05:50:15.425Z,103744.94
2019-02-23T05:50:46.737Z,103745.14
2019-02-23T05:51:18.025Z,103744.02
2019-02-23T05:51:49.464Z,103740.88
2019-02-23T05:52:21.694Z,103741.44
2019-02-23T05:52:53.001Z,103747.16
2019-02-23T05:53:24.351Z,103747.89
2019-02-23T05:53:55.651Z,103742.02
2019-02-23T05:54:26.978Z,103749.38
2019-02-23T05:54:58.240Z,103747.33
2019-02-23T05:55:29.613Z,103750.66
2019-02-23T05:56:00.797Z,103742.72
2019-02-23T05:56:32.100Z,103746.78
2019-02-23T05:57:03.317Z,103754.30
2019-02-23T05:57:34.635Z,103745.28
2019-02-23T05:58:05.833Z,103751.55
2019-02-23T05:58:37.151Z,103749.69
2019-02-23T05:59:08.532Z,103752.09
2019-02-23T05:59:40.807Z,103753.39